Saint-Antonin, Canada
Current Conditions -  °F | °C
As of 6:53 PM on Thursday 27 Nov 2014 (Local Time) from KFVE Reporting Station
Clear Clear  
Wind Chill:   Ceiling: Unl
Heat Index: 15°   Visibility: 10mi
Dew Point:   Wind: 7mph
Humidity: 74%   Direction: 320°NW
Pressure: 29.94"   Gusts: NA
Location:  47.77°N, 69.48°W
Report Text: KFVE 272353Z AUTO 32006KT 10SM CLR M09/M13 A2994 RMK AO2 SLP156 60000 T10941133 11061 21100 51007
Loading
Personal Weather Stations






























Interactive Weather Map New forecast layout! Learn more

10-Day Weather Forecast

Advertisements
Track Severe Weather on mobile